Time;durP1;ratioP1;P1;durP2;ratioP2;P2;SDS_P1;SDS_P2;PMS_P1;PMS_P2;Temp;Humidity;BMP_temperature;BMP_pressure;BME280_temperature;BME280_humidity;BME280_pressure;Samples;Min_cycle;Max_cycle;Signal;HPM_P1;HPM_P2
2022/04/23 08:39:06;;;;;;;4.35;2.85;;;;;;;12.89;56.32;99195.69;1837419;75;22707;-63
2022/04/23 08:41:35;;;;;;;5.45;2.98;;;;;;;13.14;56.33;99208.86;1817708;77;21509;-61
2022/04/23 08:44:06;;;;;;;4.60;3.10;;;;;;;13.24;55.86;99208.25;1818150;77;21116;-62
2022/04/23 08:46:40;;;;;;;6.28;3.30;;;;;;;13.23;55.28;99202.64;1815703;77;21646;-62
2022/04/23 08:49:16;;;;;;;6.62;3.22;;;;;;;13.38;56.11;99198.54;1817030;77;21505;-63
2022/04/23 08:51:53;;;;;;;7.33;2.85;;;;;;;13.62;57.13;99195.22;1807806;77;21049;-62
2022/04/23 08:54:23;;;;;;;4.20;2.80;;;;;;;13.77;55.38;99190.70;1810959;77;20981;-62
2022/04/23 08:56:50;;;;;;;4.22;2.90;;;;;;;13.92;56.09;99189.66;1816033;77;21063;-62
2022/04/23 08:59:17;;;;;;;9.00;3.30;;;;;;;13.83;55.62;99177.15;1811575;78;20934;-62
2022/04/23 09:01:44;;;;;;;6.42;3.17;;;;;;;13.98;55.12;99178.72;1813665;77;21026;-62
2022/04/23 09:04:12;;;;;;;5.53;3.90;;;;;;;13.97;54.22;99182.27;1816389;77;21520;-61
2022/04/23 09:06:44;;;;;;;4.55;3.20;;;;;;;13.71;53.25;99175.38;1813631;78;21543;-61
2022/04/23 09:09:23;;;;;;;5.08;3.02;;;;;;;13.77;51.61;99174.95;1814018;77;22475;-61
2022/04/23 09:11:57;;;;;;;6.92;2.98;;;;;;;13.85;53.97;99164.77;1809501;77;20969;-61
2022/04/23 09:14:32;;;;;;;8.15;3.70;;;;;;;13.62;53.13;99184.25;1816292;77;21044;-61
2022/04/23 09:25:31;;;;;;;5.58;3.15;;;;;;;13.52;54.70;99160.06;1751573;79;20952;-60
2022/04/23 09:28:17;;;;;;;9.35;3.52;;;;;;;13.86;52.93;99158.56;1780948;78;21039;-62
2022/04/23 09:30:46;;;;;;;5.75;2.72;;;;;;;13.94;53.35;99156.25;1775956;78;20996;-62
2022/04/23 09:33:13;;;;;;;7.92;2.90;;;;;;;13.93;52.68;99159.83;1786730;78;20986;-61
2022/04/23 09:36:00;;;;;;;11.68;3.02;;;;;;;13.85;53.12;99156.90;1748189;80;21594;-62
2022/04/23 09:38:27;;;;;;;7.92;3.65;;;;;;;13.88;52.85;99156.68;1724305;81;21100;-62
2022/04/23 09:40:57;;;;;;;10.15;3.20;;;;;;;13.90;52.01;99157.42;1740410;81;21577;-65
2022/04/23 09:43:27;;;;;;;3.35;2.60;;;;;;;13.83;52.28;99150.91;1689393;82;21114;-61
2022/04/23 09:46:08;;;;;;;3.95;2.72;;;;;;;13.81;52.54;99150.20;1734486;81;21151;-62
2022/04/23 09:48:40;;;;;;;6.03;2.33;;;;;;;13.77;52.29;99153.97;1728989;80;21923;-62
2022/04/23 09:51:26;;;;;;;3.60;2.60;;;;;;;13.73;51.11;99159.08;1729761;82;21030;-61
2022/04/23 09:53:54;;;;;;;5.03;2.90;;;;;;;13.71;51.16;99146.52;1734907;81;21510;-61
2022/04/23 09:56:24;;;;;;;6.20;2.60;;;;;;;14.07;51.58;99146.57;1731015;82;21181;-61
2022/04/23 09:58:52;;;;;;;4.72;2.15;;;;;;;13.92;46.94;99148.98;1735965;81;20946;-61
2022/04/23 10:01:20;;;;;;;5.50;2.65;;;;;;;13.91;48.27;99149.91;1735920;82;21808;-61
2022/04/23 10:03:54;;;;;;;4.12;1.98;;;;;;;14.16;49.10;99159.98;1735631;81;21009;-61
2022/04/23 10:06:23;;;;;;;4.37;2.00;;;;;;;14.14;48.90;99140.88;1738851;81;20955;-61
2022/04/23 10:08:57;;;;;;;3.22;2.35;;;;;;;14.00;47.70;99147.97;1735454;81;21029;-62
2022/04/23 10:11:30;;;;;;;2.40;2.02;;;;;;;14.06;48.19;99133.56;1735203;80;22561;-62
2022/04/23 10:14:04;;;;;;;2.72;2.10;;;;;;;14.39;44.45;99156.55;1756258;79;21470;-63
2022/04/23 10:16:33;;;;;;;3.75;2.40;;;;;;;14.76;47.93;99140.80;1772746;79;21505;-65
2022/04/23 10:19:01;;;;;;;3.65;2.00;;;;;;;15.00;48.08;99129.75;1759268;81;21067;-65
2022/04/23 10:22:03;;;;;;;4.70;2.20;;;;;;;15.30;48.60;99121.82;1724768;81;21006;-67
2022/04/23 10:24:58;;;;;;;6.28;2.10;;;;;;;15.51;48.39;99144.80;1755876;81;22226;-62
2022/04/23 10:27:26;;;;;;;2.80;2.20;;;;;;;15.36;45.95;99130.55;1738103;81;21110;-62
2022/04/23 10:29:59;;;;;;;4.47;2.10;;;;;;;15.26;44.98;99134.83;1754714;81;21077;-61
2022/04/23 10:32:25;;;;;;;4.12;2.40;;;;;;;14.86;45.40;99131.25;1781312;78;21521;-63
2022/04/23 10:34:53;;;;;;;2.98;1.90;;;;;;;14.92;45.21;99133.91;1782357;79;20986;-61
2022/04/23 10:37:27;;;;;;;5.45;2.50;;;;;;;15.10;44.81;99151.42;1752477;81;21520;-63
2022/04/23 10:39:59;;;;;;;5.75;2.47;;;;;;;15.15;45.72;99151.89;1730382;81;21112;-61
2022/04/23 10:42:26;;;;;;;6.22;2.37;;;;;;;15.19;45.79;99123.11;1728968;80;20982;-62
2022/04/23 10:44:57;;;;;;;5.60;1.75;;;;;;;15.13;45.90;99132.78;1733933;80;20963;-66
2022/04/23 10:47:35;;;;;;;6.37;2.20;;;;;;;14.66;43.14;99134.53;1736299;80;21140;-62
2022/04/23 10:50:23;;;;;;;3.08;2.10;;;;;;;14.35;43.85;99131.47;1731512;80;21480;-64
2022/04/23 10:52:55;;;;;;;4.33;2.17;;;;;;;14.31;44.58;99119.49;1739850;80;21502;-61
2022/04/23 10:55:22;;;;;;;5.17;2.50;;;;;;;14.20;43.72;99140.44;1753740;81;20981;-62
2022/04/23 10:57:57;;;;;;;;;;;;;;;13.87;43.86;99139.27;1758161;81;21020;-62
2022/04/23 11:00:30;;;;;;;5.42;2.27;;;;;;;13.95;45.02;99131.70;1754253;81;20987;-63
2022/04/23 11:03:08;;;;;;;6.12;2.42;;;;;;;14.33;44.69;99133.36;1752946;81;21252;-61
2022/04/23 11:14:46;;;;;;;2.70;2.10;;;;;;;14.23;43.03;99116.61;1677416;84;21051;-63
2022/04/23 11:17:23;;;;;;;2.95;2.12;;;;;;;14.22;44.80;99122.79;1633463;87;21040;-62
2022/04/23 11:19:54;;;;;;;3.70;2.50;;;;;;;14.22;44.33;99138.55;1650303;85;21209;-62
2022/04/23 11:22:22;;;;;;;3.95;2.25;;;;;;;14.35;43.28;99122.28;1656557;85;21159;-62
2022/04/23 11:24:51;;;;;;;4.17;2.70;;;;;;;14.28;42.71;99114.47;1656528;85;21735;-62
2022/04/23 11:27:33;;;;;;;3.33;2.35;;;;;;;14.38;42.86;99128.62;1656395;85;21045;-63
2022/04/23 11:30:00;;;;;;;2.65;2.25;;;;;;;14.59;44.38;99110.50;1655807;85;21124;-62
2022/04/23 11:32:29;;;;;;;4.53;2.65;;;;;;;14.88;44.64;99113.59;1655476;85;21456;-63
2022/04/23 11:34:59;;;;;;;4.97;3.37;;;;;;;14.81;42.98;99109.73;1656785;85;21212;-62
2022/04/23 11:37:42;;;;;;;4.65;2.65;;;;;;;14.71;43.34;99120.58;1655957;85;21703;-62
2022/04/23 11:40:16;;;;;;;4.12;2.58;;;;;;;14.62;43.56;99129.98;1654927;85;21140;-63
2022/04/23 11:42:45;;;;;;;6.20;2.90;;;;;;;14.40;43.00;99129.36;1676098;83;21064;-63
2022/04/23 11:45:16;;;;;;;7.28;2.98;;;;;;;14.15;44.13;99121.57;1698331;83;21068;-62
2022/04/23 11:47:45;;;;;;;11.85;2.98;;;;;;;14.05;44.28;99118.27;1696829;83;21196;-62
2022/04/23 11:50:23;;;;;;;4.22;2.72;;;;;;;13.95;44.17;99113.33;1695506;83;21558;-62
2022/04/23 11:53:03;;;;;;;4.30;2.45;;;;;;;13.93;44.42;99120.46;1713871;81;21034;-62
2022/04/23 11:55:30;;;;;;;3.77;2.40;;;;;;;14.07;44.32;99112.44;1753933;81;20910;-62
2022/04/23 11:58:06;;;;;;;4.45;2.17;;;;;;;14.16;44.86;99115.36;1750454;81;21433;-63
2022/04/23 12:00:34;;;;;;;4.17;2.45;;;;;;;14.23;45.17;99112.67;1749968;81;21040;-62
2022/04/23 12:03:02;;;;;;;10.55;2.22;;;;;;;14.17;44.86;99119.20;1737144;80;20960;-62
2022/04/23 12:05:32;;;;;;;3.05;2.45;;;;;;;14.23;45.36;99113.98;1736452;81;21040;-62
2022/04/23 12:09:19;;;;;;;3.10;2.47;;;;;;;14.04;44.80;99104.79;1872494;75;22634;-61
2022/04/23 12:11:51;;;;;;;3.08;2.33;;;;;;;13.84;44.62;99108.00;1841896;76;21014;-61
2022/04/23 12:14:18;;;;;;;3.83;2.20;;;;;;;13.69;45.19;99111.68;1831903;76;22112;-62
2022/04/23 12:16:44;;;;;;;3.40;2.47;;;;;;;13.56;45.69;99117.79;1839600;76;20955;-62
2022/04/23 12:19:13;;;;;;;3.35;2.27;;;;;;;13.46;45.35;99118.05;1842279;76;21545;-62
2022/04/23 12:21:56;;;;;;;6.12;2.58;;;;;;;13.38;45.17;99116.42;1817159;77;20890;-62
2022/04/23 12:24:35;;;;;;;3.87;2.33;;;;;;;13.34;45.23;99117.59;1688982;83;21080;-62
2022/04/23 12:27:06;;;;;;;4.85;2.52;;;;;;;13.29;45.40;99111.81;1690794;83;21473;-62
2022/04/23 12:43:25;;;;;;;7.30;2.17;;;;;;;13.63;45.17;99107.70;1678466;83;21050;-63
2022/04/23 12:46:07;;;;;;;5.85;2.00;;;;;;;13.18;45.63;99117.27;1727797;82;21762;-62
2022/04/23 12:48:55;;;;;;;4.70;2.75;;;;;;;13.11;46.16;99101.61;1691053;83;20973;-62
2022/04/23 12:51:23;;;;;;;3.92;2.12;;;;;;;13.26;46.37;99101.06;1729199;82;20960;-62
2022/04/23 12:53:49;;;;;;;4.35;2.12;;;;;;;13.26;46.62;99102.37;1709489;81;21153;-62
2022/04/23 12:56:18;;;;;;;3.13;1.80;;;;;;;13.33;46.84;99111.95;1712623;82;20970;-62
2022/04/23 12:58:46;;;;;;;2.22;1.92;;;;;;;13.46;47.01;99116.73;1726892;82;21222;-62
2022/04/23 13:01:13;;;;;;;4.72;2.90;;;;;;;13.55;46.78;99104.29;1728457;81;21498;-62
2022/04/23 13:03:44;;;;;;;3.22;2.30;;;;;;;13.48;47.28;99103.53;1729456;81;20949;-62
2022/04/23 13:08:56;;;;;;;3.12;2.20;;;;;;;13.63;47.07;99099.83;1713543;81;20956;-63
2022/04/23 13:11:28;;;;;;;4.35;2.62;;;;;;;13.57;47.11;99095.84;1714464;81;20906;-62
2022/04/23 13:14:00;;;;;;;3.52;2.50;;;;;;;13.47;47.19;99100.08;1722997;81;21359;-62
2022/04/23 13:16:46;;;;;;;7.12;2.87;;;;;;;13.26;47.72;99096.30;1722935;81;21042;-62
2022/04/23 13:19:15;;;;;;;2.65;2.30;;;;;;;13.29;48.14;99106.56;1675881;83;21889;-60
2022/04/23 13:21:42;;;;;;;5.83;2.10;;;;;;;13.21;47.93;99102.64;1680496;83;21173;-63
2022/04/23 13:24:10;;;;;;;7.45;2.10;;;;;;;13.21;48.06;99090.84;1657245;85;28151;-63
2022/04/23 13:26:37;;;;;;;4.83;2.27;;;;;;;13.14;47.82;99104.02;1669414;84;21017;-61
2022/04/23 13:29:05;;;;;;;2.58;1.80;;;;;;;13.11;47.83;99088.50;1678217;83;21109;-62
2022/04/23 13:31:32;;;;;;;3.30;1.82;;;;;;;13.04;48.25;99110.81;1649492;85;21028;-61
2022/04/23 13:33:58;;;;;;;2.40;1.87;;;;;;;13.05;48.33;99082.81;1677947;84;21097;-63
2022/04/23 13:36:25;;;;;;;2.75;2.00;;;;;;;13.05;48.34;99081.06;1675073;83;21086;-62
2022/04/23 13:38:52;;;;;;;2.62;2.20;;;;;;;13.06;48.50;99095.83;1671240;83;20994;-62
2022/04/23 13:41:19;;;;;;;2.77;1.80;;;;;;;12.97;48.33;99088.59;1680050;83;21591;-61
2022/04/23 13:43:47;;;;;;;;;;;;;;;12.97;48.70;99080.73;1680461;85;21538;-61
2022/04/23 13:46:19;;;;;;;3.27;2.00;;;;;;;12.98;48.67;99085.02;1676902;83;20219;-61
2022/04/23 13:49:07;;;;;;;4.53;2.25;;;;;;;12.96;48.59;99089.52;1655453;85;21577;-61
2022/04/23 13:51:34;;;;;;;4.03;3.05;;;;;;;12.90;48.61;99079.45;1746896;80;21083;-61
2022/04/23 13:54:00;;;;;;;6.85;2.60;;;;;;;12.86;48.41;99088.00;1739566;81;21492;-61
2022/04/23 13:56:27;;;;;;;7.30;3.02;;;;;;;12.84;48.49;99091.19;1745791;81;21460;-61
2022/04/23 13:58:54;;;;;;;3.85;2.40;;;;;;;12.86;48.50;99074.90;1743768;81;20965;-61
2022/04/23 14:01:21;;;;;;;5.70;2.42;;;;;;;12.81;48.29;99090.55;1738698;81;20990;-62
2022/04/23 14:12:06;;;;;;;8.10;3.20;;;;;;;12.53;48.35;99079.28;1740760;81;21529;-61
2022/04/23 14:14:33;;;;;;;5.12;3.30;;;;;;;12.65;48.76;99073.22;1741238;80;21648;-61
2022/04/23 14:17:00;;;;;;;8.78;2.90;;;;;;;12.65;48.47;99067.98;1743636;81;21512;-60
2022/04/23 14:19:27;;;;;;;5.03;2.55;;;;;;;12.82;48.58;99077.81;1746058;81;20942;-60
2022/04/23 14:21:54;;;;;;;7.80;3.20;;;;;;;12.75;48.21;99083.47;1743864;80;21040;-61
2022/04/23 14:24:23;;;;;;;9.33;2.90;;;;;;;12.68;48.39;99071.70;1741572;81;20981;-60
2022/04/23 14:26:50;;;;;;;3.05;2.33;;;;;;;12.64;47.67;99067.62;1742209;80;21064;-60
2022/04/23 14:29:17;;;;;;;3.17;2.60;;;;;;;12.56;47.62;99080.38;1743358;80;20974;-61
2022/04/23 14:31:44;;;;;;;4.72;3.25;;;;;;;12.46;47.75;99067.51;1739970;79;26598;-61
2022/04/23 14:34:11;;;;;;;3.90;2.62;;;;;;;12.40;47.69;99062.68;1700906;82;21094;-61
2022/04/23 14:36:37;;;;;;;4.47;2.50;;;;;;;12.44;47.83;99057.16;1706279;82;21576;-61
2022/04/23 14:39:06;;;;;;;5.90;2.83;;;;;;;12.48;47.87;99057.78;1706014;82;21094;-61
2022/04/23 14:41:33;;;;;;;3.10;2.60;;;;;;;12.55;47.87;99068.23;1707875;82;21027;-62
2022/04/23 14:44:00;;;;;;;4.70;2.27;;;;;;;12.52;47.58;99071.06;1703773;82;27040;-61
2022/04/23 14:46:29;;;;;;;5.60;1.95;;;;;;;12.45;47.49;99069.30;1704075;82;21751;-62
2022/04/23 14:48:58;;;;;;;2.50;2.30;;;;;;;12.40;47.42;99071.37;1697791;82;21047;-61
2022/04/23 14:54:10;;;;;;;3.72;2.67;;;;;;;12.48;47.23;99069.56;1696905;83;22595;-61
2022/04/23 14:56:43;;;;;;;2.58;2.00;;;;;;;12.45;47.02;99063.22;1701087;83;21051;-61
2022/04/23 14:59:11;;;;;;;3.95;2.70;;;;;;;12.43;47.50;99058.55;1701317;83;21229;-62
2022/04/23 15:01:39;;;;;;;4.12;2.37;;;;;;;12.39;47.41;99061.02;1701276;83;21005;-62
2022/04/23 15:04:14;;;;;;;3.40;2.05;;;;;;;12.43;47.36;99062.48;1698290;83;21558;-61
2022/04/23 15:06:41;;;;;;;2.80;2.33;;;;;;;12.41;47.48;99051.29;1709150;83;22395;-62
2022/04/23 15:09:13;;;;;;;3.70;2.40;;;;;;;12.40;47.29;99060.90;1697414;83;21051;-62
2022/04/23 15:11:40;;;;;;;3.22;2.08;;;;;;;12.43;47.44;99058.08;1704372;82;21246;-62
2022/04/23 15:14:07;;;;;;;4.05;2.55;;;;;;;12.43;47.64;99052.00;1696980;83;21019;-62
2022/04/23 15:16:35;;;;;;;3.25;2.17;;;;;;;12.34;47.56;99053.45;1701170;83;26054;-61
2022/04/23 15:19:01;;;;;;;;;;;;;;;12.27;47.53;99058.25;1701161;83;21016;-62
2022/04/23 15:21:28;;;;;;;3.23;2.20;;;;;;;12.12;47.82;99053.99;1703722;83;20561;-63
2022/04/23 15:23:56;;;;;;;3.87;2.02;;;;;;;11.98;47.56;99051.42;1703076;82;21251;-62
2022/04/23 15:26:23;;;;;;;7.55;1.98;;;;;;;11.87;47.82;99056.02;1698882;83;21038;-62
2022/04/23 15:28:49;;;;;;;3.42;1.98;;;;;;;11.86;47.87;99059.11;1702567;83;22072;-61
2022/04/23 15:31:16;;;;;;;3.00;2.27;;;;;;;11.80;47.90;99056.86;1699165;83;20993;-61
2022/04/23 15:33:49;;;;;;;4.47;2.10;;;;;;;11.78;47.82;99058.72;1698762;83;22138;-62
2022/04/23 15:37:15;;;;;;;6.22;2.37;;;;;;;11.73;47.80;99059.47;1875293;74;22620;-61
2022/04/23 15:39:42;;;;;;;4.90;2.22;;;;;;;11.66;47.99;99062.11;1849179;75;21729;-61
2022/04/23 15:42:09;;;;;;;4.97;2.08;;;;;;;11.55;48.54;99054.09;1844523;77;21438;-62
2022/04/23 15:44:36;;;;;;;10.88;2.72;;;;;;;11.51;48.74;99067.83;1814378;76;20924;-61
2022/04/23 15:47:26;;;;;;;4.08;1.80;;;;;;;11.47;48.62;99064.18;1845976;75;20944;-61
2022/04/23 15:49:53;;;;;;;3.55;1.92;;;;;;;11.50;48.70;99067.91;1675909;84;20949;-62
2022/04/23 15:52:21;;;;;;;7.22;2.55;;;;;;;11.38;48.91;99061.19;1674088;83;20965;-62
2022/04/23 15:54:54;;;;;;;8.65;2.52;;;;;;;11.30;49.86;99068.66;1676012;84;21102;-61
2022/04/23 15:57:23;;;;;;;5.12;2.00;;;;;;;11.16;50.23;99066.05;1675223;85;21006;-61
2022/04/23 15:59:49;;;;;;;4.90;2.20;;;;;;;11.12;50.41;99064.56;1674825;84;21047;-62
2022/04/23 16:02:16;;;;;;;4.40;2.37;;;;;;;11.01;50.90;99068.25;1676558;84;21503;-61
2022/04/23 16:04:43;;;;;;;4.37;2.03;;;;;;;10.94;50.52;99066.00;1675023;84;21000;-61
2022/04/23 16:07:10;;;;;;;4.30;2.17;;;;;;;10.85;50.97;99052.19;1675388;84;21118;-62
2022/04/23 16:09:38;;;;;;;8.80;2.77;;;;;;;10.86;51.20;99051.25;1676697;85;20901;-61
2022/04/23 16:12:07;;;;;;;5.08;2.47;;;;;;;10.87;51.65;99062.09;1674538;84;21526;-62
2022/04/23 16:14:34;;;;;;;3.98;2.22;;;;;;;10.76;51.41;99054.05;1676409;84;21051;-62
2022/04/23 16:17:01;;;;;;;4.33;2.65;;;;;;;10.72;51.88;99056.45;1675631;84;21574;-61
2022/04/23 16:19:32;;;;;;;7.70;3.03;;;;;;;10.62;53.06;99060.55;1675591;85;21048;-61
2022/04/23 16:22:09;;;;;;;6.20;2.83;;;;;;;10.44;52.86;99059.34;1677277;84;21644;-61
2022/04/23 16:24:43;;;;;;;5.53;2.58;;;;;;;10.33;52.79;99059.11;1668943;84;20976;-62
2022/04/23 16:27:11;;;;;;;5.45;2.65;;;;;;;10.13;53.19;99056.30;1677051;84;21024;-62
2022/04/23 16:29:40;;;;;;;4.60;2.52;;;;;;;10.13;53.19;99056.30;1677315;84;20981;-62
2022/04/23 16:32:09;;;;;;;3.25;2.20;;;;;;;9.98;53.56;99037.14;1678259;84;21111;-60
2022/04/23 16:34:38;;;;;;;4.22;2.15;;;;;;;10.00;54.73;99049.63;1676431;84;21068;-60
2022/04/23 16:48:06;;;;;;;10.05;3.58;;;;;;;9.63;53.98;99050.35;1611699;86;21173;-62
2022/04/23 16:50:46;;;;;;;5.65;2.75;;;;;;;9.55;54.24;99049.92;1602624;87;21155;-61
2022/04/23 16:53:17;;;;;;;8.43;3.87;;;;;;;9.47;54.31;99054.70;1603764;89;21686;-61
2022/04/23 16:55:57;;;;;;;5.35;2.90;;;;;;;9.40;54.52;99053.33;1600594;87;21156;-62
2022/04/23 16:58:32;;;;;;;7.53;4.05;;;;;;;9.16;54.74;99038.08;1598010;87;21117;-62
2022/04/23 17:01:20;;;;;;;;;;;;;;;9.16;54.74;99038.08;1644352;86;21031;-62
2022/04/23 17:03:50;;;;;;;7.22;3.67;;;;;;;9.16;55.40;99048.50;1661456;84;20106;-61
2022/04/23 17:06:19;;;;;;;11.45;3.70;;;;;;;8.99;56.55;99048.54;1660240;84;21176;-61
2022/04/23 17:08:47;;;;;;;11.10;3.40;;;;;;;8.87;55.79;99053.05;1659967;84;21562;-61
2022/04/23 17:11:14;;;;;;;10.48;4.12;;;;;;;8.83;56.04;99050.23;1663661;84;21135;-61
2022/04/23 17:13:41;;;;;;;10.82;3.98;;;;;;;8.76;56.15;99054.05;1678343;82;21615;-62
2022/04/23 17:16:08;;;;;;;8.50;3.47;;;;;;;8.63;56.16;99052.08;1714214;82;21584;-61
2022/04/23 17:18:35;;;;;;;9.68;3.60;;;;;;;8.54;56.94;99049.91;1718054;82;21059;-61
2022/04/23 17:21:02;;;;;;;9.53;3.67;;;;;;;8.40;56.31;99045.85;1715895;82;21617;-61
2022/04/23 17:23:51;;;;;;;13.08;4.00;;;;;;;8.26;57.06;99043.45;1629363;86;21065;-61
2022/04/23 17:26:18;;;;;;;9.38;3.50;;;;;;;8.15;56.73;99040.53;1633824;86;21047;-61
2022/04/23 17:28:46;;;;;;;12.05;4.05;;;;;;;8.06;57.29;99040.95;1605004;88;20971;-61
2022/04/23 17:31:13;;;;;;;6.50;3.83;;;;;;;7.96;56.76;99034.53;1638893;86;27679;-61
2022/04/23 17:33:40;;;;;;;8.15;4.10;;;;;;;7.83;59.23;99041.59;1610679;88;21133;-61
2022/04/23 17:36:06;;;;;;;13.23;4.07;;;;;;;7.70;57.68;99034.00;1590658;88;21150;-61
2022/04/23 17:41:11;;;;;;;10.05;3.47;;;;;;;7.50;58.77;99031.45;1595342;86;21526;-63
2022/04/23 17:43:41;;;;;;;11.80;4.70;;;;;;;7.37;58.76;99033.78;1628507;86;21127;-61
2022/04/23 17:46:09;;;;;;;14.70;4.35;;;;;;;7.27;58.52;99041.13;1614589;88;21045;-61
2022/04/23 17:48:36;;;;;;;8.65;3.80;;;;;;;7.17;58.73;99039.87;1603915;88;21883;-61
2022/04/23 17:51:04;;;;;;;12.43;4.28;;;;;;;7.07;59.03;99043.77;1615216;85;39915;-61
2022/04/23 17:53:31;;;;;;;9.23;5.15;;;;;;;6.94;60.71;99046.88;1579077;89;21109;-61
2022/04/23 17:55:58;;;;;;;11.43;3.77;;;;;;;6.83;60.20;99046.50;1613291;86;21101;-61
2022/04/23 17:58:25;;;;;;;8.48;3.60;;;;;;;6.70;60.19;99042.30;1582077;89;21020;-61
2022/04/23 18:09:08;;;;;;;14.10;3.98;;;;;;;6.28;64.94;99042.33;1594545;88;21160;-61
2022/04/23 18:11:34;;;;;;;13.20;4.73;;;;;;;6.17;61.00;99041.92;1609065;88;21600;-61
2022/04/23 18:14:03;;;;;;;9.73;4.23;;;;;;;6.10;62.40;99041.77;1611294;88;21538;-61
2022/04/23 18:16:30;;;;;;;16.55;7.33;;;;;;;6.00;62.58;99039.55;1616549;88;21008;-61
2022/04/23 18:18:57;;;;;;;14.70;6.92;;;;;;;5.90;63.85;99039.47;1603827;88;26706;-61
2022/04/23 18:21:26;;;;;;;22.62;15.83;;;;;;;5.81;63.01;99033.36;1605284;88;21103;-61
2022/04/23 18:23:56;;;;;;;10.48;6.78;;;;;;;5.72;63.14;99031.13;1653731;85;21002;-60
2022/04/23 18:26:26;;;;;;;16.02;9.55;;;;;;;5.63;65.12;99039.23;1652865;85;21478;-61
2022/04/23 18:28:54;;;;;;;9.30;5.35;;;;;;;5.54;63.38;99033.50;1653066;85;21056;-61
2022/04/23 18:31:20;;;;;;;;;;;;;;;5.47;66.69;99029.47;1656657;85;20925;-61
2022/04/23 18:33:47;;;;;;;12.40;6.47;;;;;;;5.41;64.81;99029.70;1656489;85;20214;-61
2022/04/23 18:36:14;;;;;;;13.25;5.72;;;;;;;5.34;65.56;99026.94;1651824;85;21053;-61
2022/04/23 18:38:41;;;;;;;12.88;7.08;;;;;;;5.30;65.89;99031.84;1651904;85;21119;-61
2022/04/23 18:41:08;;;;;;;11.48;6.33;;;;;;;5.23;65.91;99027.78;1653413;85;21504;-61
2022/04/23 18:43:35;;;;;;;15.68;6.55;;;;;;;5.16;67.83;99033.18;1650972;85;21080;-61
2022/04/23 18:46:01;;;;;;;13.22;5.60;;;;;;;5.11;65.89;99026.48;1652975;85;21627;-61
2022/04/23 18:48:28;;;;;;;11.77;5.73;;;;;;;5.07;67.80;99028.34;1653634;85;21032;-61
2022/04/23 18:50:56;;;;;;;13.18;5.15;;;;;;;5.01;67.43;99032.42;1651927;85;21023;-62
2022/04/23 18:53:23;;;;;;;15.70;5.70;;;;;;;4.94;70.55;99032.27;1647020;84;21577;-61
2022/04/23 18:55:49;;;;;;;13.93;5.40;;;;;;;4.88;66.58;99023.43;1650810;84;21113;-62
2022/04/23 18:58:17;;;;;;;9.90;4.97;;;;;;;4.82;68.34;99035.29;1656355;85;20926;-61
2022/04/23 19:00:54;;;;;;;9.23;5.00;;;;;;;4.76;66.54;99029.02;1653384;85;21080;-61
2022/04/23 19:03:12;;;;;;;11.38;5.10;;;;;;;4.70;67.01;99027.06;1651332;85;21846;-61
2022/04/23 19:05:39;;;;;;;19.67;9.25;;;;;;;4.64;67.03;99032.41;1650594;85;21014;-61
2022/04/23 19:08:07;;;;;;;13.25;6.37;;;;;;;4.59;66.87;99035.59;1653556;85;20991;-61
2022/04/23 19:10:33;;;;;;;14.33;6.42;;;;;;;4.56;66.72;99023.23;1651995;85;20951;-62
2022/04/23 19:13:00;;;;;;;11.10;5.63;;;;;;;4.50;66.84;99024.28;1655472;85;21018;-61
2022/04/23 19:15:27;;;;;;;11.97;5.00;;;;;;;4.46;67.28;99009.78;1656804;85;21382;-62
2022/04/23 19:17:54;;;;;;;13.88;4.92;;;;;;;4.42;67.36;99011.61;1655102;85;21005;-61
2022/04/23 19:20:20;;;;;;;13.20;5.08;;;;;;;4.39;67.24;99008.29;1655296;85;21627;-61
2022/04/23 19:28:17;;;;;;;14.68;5.53;;;;;;;4.28;67.96;99007.80;1645918;86;21125;-62
2022/04/23 19:30:46;;;;;;;10.95;4.75;;;;;;;4.23;69.20;99012.69;1633922;86;21095;-62
2022/04/23 19:33:13;;;;;;;9.73;5.00;;;;;;;4.16;68.51;99008.60;1637282;86;20992;-62
2022/04/23 19:35:39;;;;;;;15.05;7.03;;;;;;;4.16;68.31;98999.56;1615380;88;21024;-62
2022/04/23 19:38:09;;;;;;;10.45;6.45;;;;;;;4.13;68.47;99013.88;1642528;86;21532;-62
2022/04/23 19:40:36;;;;;;;12.25;6.40;;;;;;;4.10;69.22;99002.34;1638702;86;22264;-62
2022/04/23 19:43:03;;;;;;;16.17;8.73;;;;;;;4.02;68.53;99004.33;1641857;86;21033;-61
2022/04/23 19:45:31;;;;;;;16.52;8.00;;;;;;;3.98;68.56;99014.38;1641081;86;21162;-61
2022/04/23 19:47:58;;;;;;;18.80;7.78;;;;;;;3.95;68.88;99006.70;1642767;86;20988;-61
2022/04/23 19:50:27;;;;;;;14.87;7.83;;;;;;;3.93;68.76;99004.63;1635224;86;21398;-61
2022/04/23 19:52:53;;;;;;;16.10;8.10;;;;;;;3.91;68.71;99014.16;1634193;86;21112;-61
2022/04/23 19:55:25;;;;;;;20.13;7.13;;;;;;;3.87;69.18;98999.67;1633818;86;21109;-61
2022/04/23 19:57:52;;;;;;;13.28;7.42;;;;;;;3.84;69.75;98995.86;1607815;88;21114;-60
2022/04/23 20:00:18;;;;;;;17.63;7.60;;;;;;;3.80;70.58;98998.55;1603743;88;21123;-61
2022/04/23 20:02:45;;;;;;;13.75;7.70;;;;;;;3.83;71.24;98992.89;1604036;87;21612;-61
2022/04/23 20:05:34;;;;;;;13.47;6.90;;;;;;;3.79;71.36;98994.28;1642402;86;21575;-62
2022/04/23 20:08:01;;;;;;;12.63;6.20;;;;;;;3.76;70.57;98986.64;1697347;82;21048;-61
2022/04/23 20:10:28;;;;;;;14.13;7.92;;;;;;;3.74;70.51;98992.28;1661443;85;21585;-61
2022/04/23 20:12:57;;;;;;;17.42;8.85;;;;;;;3.73;70.54;98989.31;1662720;85;20926;-61
2022/04/23 20:15:23;;;;;;;15.08;8.30;;;;;;;3.73;70.20;98991.90;1696957;83;20961;-61
2022/04/23 20:17:51;;;;;;;13.60;9.20;;;;;;;3.73;70.64;98982.02;1701181;83;21458;-61
2022/04/23 20:20:18;;;;;;;21.48;9.13;;;;;;;3.70;70.27;98979.09;1688909;83;20977;-61
2022/04/23 20:22:45;;;;;;;18.03;8.57;;;;;;;3.68;70.37;98980.86;1697447;81;21534;-61
2022/04/23 20:25:12;;;;;;;17.80;8.65;;;;;;;3.67;70.45;98969.28;1702450;83;20977;-60
2022/04/23 20:27:41;;;;;;;12.70;7.72;;;;;;;3.65;70.38;98968.51;1697679;83;21067;-61
2022/04/23 20:30:10;;;;;;;18.23;7.78;;;;;;;3.60;71.52;98968.64;1696002;83;21071;-61
2022/04/23 20:32:37;;;;;;;18.30;8.33;;;;;;;3.57;71.00;98969.57;1697448;83;21044;-61
2022/04/23 20:40:41;;;;;;;12.75;6.87;;;;;;;3.47;71.71;98956.54;1700265;83;21048;-62
2022/04/23 20:43:09;;;;;;;15.13;5.90;;;;;;;3.45;72.34;98956.22;1699355;83;21586;-62
2022/04/23 20:45:38;;;;;;;14.60;6.55;;;;;;;3.43;72.51;98959.28;1698032;83;21297;-61
2022/04/23 20:48:08;;;;;;;14.75;6.12;;;;;;;3.40;71.96;98958.09;1699160;82;21083;-61
2022/04/23 20:50:37;;;;;;;11.95;5.70;;;;;;;3.37;72.04;98966.77;1701241;83;21503;-62
2022/04/23 20:53:11;;;;;;;11.30;5.37;;;;;;;3.35;73.43;98961.63;1701578;83;21107;-62
2022/04/23 20:55:53;;;;;;;16.45;5.35;;;;;;;3.32;72.48;98956.57;1698681;83;22302;-62
2022/04/23 20:58:23;;;;;;;13.85;6.05;;;;;;;3.33;71.99;98950.54;1700132;83;21016;-62
2022/04/23 21:00:53;;;;;;;8.55;5.28;;;;;;;3.31;72.02;98955.34;1699353;83;20936;-61
2022/04/23 21:03:21;;;;;;;11.90;5.95;;;;;;;3.26;72.24;98949.02;1698064;83;20961;-61
2022/04/23 21:05:49;;;;;;;12.07;5.50;;;;;;;3.25;72.19;98956.37;1699990;83;21114;-62
2022/04/23 21:08:17;;;;;;;9.23;5.80;;;;;;;3.23;72.43;98949.11;1699197;83;22421;-62
2022/04/23 21:10:44;;;;;;;15.88;5.55;;;;;;;3.22;73.46;98950.02;1698395;83;21008;-61
2022/04/23 21:13:11;;;;;;;9.55;5.20;;;;;;;3.21;72.89;98956.05;1698265;83;21565;-61
2022/04/23 21:15:39;;;;;;;12.93;5.83;;;;;;;3.20;72.65;98948.37;1701651;83;20959;-62
2022/04/23 21:18:07;;;;;;;9.13;5.83;;;;;;;3.19;72.61;98950.08;1690366;83;21817;-61
2022/04/23 21:20:33;;;;;;;12.73;5.62;;;;;;;3.18;72.61;98950.98;1695516;83;21468;-61
2022/04/23 21:23:00;;;;;;;7.72;4.92;;;;;;;3.16;72.72;98950.17;1700933;83;21116;-62
2022/04/23 21:25:27;;;;;;;8.65;5.22;;;;;;;3.14;72.79;98948.10;1699722;83;21083;-62
2022/04/23 21:27:53;;;;;;;9.08;5.35;;;;;;;3.12;73.70;98946.84;1696603;83;21012;-61
2022/04/23 21:30:20;;;;;;;14.87;5.47;;;;;;;3.09;73.28;98951.25;1699567;83;20953;-61
2022/04/23 21:32:47;;;;;;;8.90;5.30;;;;;;;3.08;73.14;98955.99;1698084;83;21063;-61
2022/04/23 21:35:13;;;;;;;12.75;5.33;;;;;;;3.07;73.63;98959.48;1699174;83;20981;-62
2022/04/23 21:37:40;;;;;;;13.50;5.53;;;;;;;3.06;73.78;98966.83;1697690;83;21147;-61
2022/04/23 21:40:07;;;;;;;11.85;5.40;;;;;;;3.07;73.33;98965.92;1701036;83;21836;-61
2022/04/23 21:45:19;;;;;;;8.73;5.28;;;;;;;3.04;73.67;98968.59;1700087;83;21650;-61
2022/04/23 21:47:48;;;;;;;10.50;5.35;;;;;;;3.02;73.59;98973.78;1698532;83;21064;-61